Oak City, NC (27857)

4:13 AM EST on March 06, 2015 (GMT -0500)
Edgecombe-Martin County EMC | Change Station
CLOSE
Current Station
Personal Weather Station
Location: Tarboro, NC
Elevation: 76 ft
Nearby Weather Stations
Active Advisory: Special Statement

Elev 76 ft 35.89 °N, 77.53 °W | Updated 56 seconds ago

Overcast
Overcast
27.5 °F
Feels Like 17 °F
N
13.0
Wind Variable Wind from NNE
Gusts 24.0 mph

Today
High -- | Low -- °F
--% Chance of Precip.
Yesterday
High -- | Low -- °F
Precip. -- in
6:32 AM 6:08 PM
Full, 100% visible
Pressure 30.41 in
Visibility 10.0 miles
Clouds Overcast 8500 ft
Windchill 17 °F
Dew Point 15 °F
Humidity 58%
Rainfall in
Snow Depth Not available.
UV 0 out of 12
Pollen .90 out of 12
Air Quality Not available.
Flu Activity Not available.
METAR KETC 060855Z AUTO 01012G20KT 10SM OVC085 M02/M09 A3041 RMK AO2 T10191091

More Conditions Fewer Conditions

Pressure 30.41 in
Visibility 10.0 miles
Clouds Overcast 8500 ft
Windchill 17 °F
Dew Point 15 °F
Humidity 58%
Rainfall in
Snow Depth Not available.
UV 0 out of 12
Pollen .90 out of 12
Air Quality Not available.
Flu Activity Not available.
METAR KETC 060855Z AUTO 01012G20KT 10SM OVC085 M02/M09 A3041 RMK AO2 T10191091

More Conditions Fewer Conditions

10-Day Weather Forecast

Almanac

Astronomy

Mar. 06, 2015 Rise Set
Actual Time
Civil Twilight
Nautical Twilight
Astronomical Twilight
Moon
Length of Visible Light
Length of Day
Tomorrow will be .
, % of the Moon is Illuminated

Today's Extremes

State Highs State Lows

Community

WunderPhotos

Upload Photos

1,803,212 photos uploaded!

WunderBlogs® & News

Nearby

Air Quality

  Air Quality AQ Index Pollutant
Not available.

Snow Depth

Station Depth Elevation

Earthquake Activity

City Distance Mag. Time & Date
Minimum magnitude displayed is 2.5.

Coastal Water Temperatures

Place Temperature

Nearby Weather Stations

Special Statement
Statement as of 4:05 AM EST on March 06, 2015

... Patchy black ice possible across eastern North Carolina this
morning...

Temperatures below freezing combined with residual moisture will
lead to patchy icy spots this morning. Overall expect minimal
impacts on roadways due to warm ground temperatures... though some
slick spots may develop on elevated surfaces such as bridges and
overpasses. Temperatures are not expected to rise above freezing
until late this morning and early afternoon.

Motorists and pedestrians are urged to remain alert for slick
spots.


405 am EST Fri Mar 6 2015

... Patchy black ice possible across eastern North Carolina this
morning...

Temperatures below freezing combined with residual moisture will
lead to patchy icy spots this morning. Overall expect minimal
impacts on roadways due to warm ground temperatures... though some
slick spots may develop on elevated surfaces such as bridges and
overpasses. Temperatures are not expected to rise above freezing
until late this morning and early afternoon.

Motorists and pedestrians are urged to remain alert for slick
spots.